Dinant, Belgium
Current Conditions -  °F | °C
As of 6:55 PM on Tuesday 21 Oct 2014 (Local Time) from EBFS Reporting Station
Scattered Clouds Scattered Clouds  
Wind Chill: 40°   Ceiling: Unl
Heat Index: 46°   Visibility: 6mi
Dew Point: 39°   Wind: 15mph
Humidity: 76%   Direction: 280°W
Pressure: 29.8"   Gusts: NA
Location:  50.26°N, 4.91°E
Report Text: EBFS 211655Z 28013KT 9999 FEW020CB SCT045 08/04 Q1009 BLU BLU TEMPO GRN
Loading
Personal Weather Stations






























Interactive Weather Map New forecast layout! Learn more

10-Day Weather Forecast

Advertisements
Track Severe Weather on mobile